Time;durP1;ratioP1;P1;durP2;ratioP2;P2;SDS_P1;SDS_P2;PMS_P1;PMS_P2;Temp;Humidity;BMP_temperature;BMP_pressure;BME280_temperature;BME280_humidity;BME280_pressure;Samples;Min_cycle;Max_cycle;Signal;HPM_P1;HPM_P2
2021/01/05 00:02:21;;;;;;;13.27;9.38;;;3.70;99.90;;;;;;4167829;28;20680;-82
2021/01/05 00:04:22;;;;;;;12.07;8.05;;;3.70;99.90;;;;;;4147510;28;20033;-82
2021/01/05 00:06:48;;;;;;;12.52;9.40;;;3.70;99.90;;;;;;4165746;28;20531;-82
2021/01/05 00:08:53;;;;;;;11.40;8.77;;;3.70;99.90;;;;;;4163660;28;20037;-82
2021/01/05 00:10:54;;;;;;;12.75;8.77;;;3.70;99.90;;;;;;4140063;28;20419;-82
2021/01/05 00:12:55;;;;;;;12.20;8.73;;;3.70;99.90;;;;;;4164515;28;20060;-82
2021/01/05 00:14:56;;;;;;;15.43;9.80;;;3.60;99.90;;;;;;4150309;28;20101;-82
2021/01/05 00:16:57;;;;;;;10.23;8.30;;;3.60;99.90;;;;;;4154569;28;20534;-82
2021/01/05 00:18:58;;;;;;;13.63;9.48;;;3.60;99.90;;;;;;4174785;28;20029;-82
2021/01/05 00:20:58;;;;;;;15.93;10.15;;;3.60;99.90;;;;;;4153601;28;20066;-82
2021/01/05 00:22:59;;;;;;;11.95;9.35;;;3.60;99.90;;;;;;4183725;28;20032;-82
2021/01/05 00:25:00;;;;;;;12.55;8.30;;;3.60;99.90;;;;;;4145945;28;20038;-82
2021/01/05 00:27:02;;;;;;;15.30;9.95;;;3.60;99.90;;;;;;4170251;28;20273;-82
2021/01/05 00:29:08;;;;;;;11.18;8.65;;;3.60;99.90;;;;;;4152018;28;20343;-82
2021/01/05 00:31:08;;;;;;;13.85;10.75;;;3.60;99.90;;;;;;4153598;28;20668;-82
2021/01/05 00:33:09;;;;;;;13.88;10.05;;;3.50;99.90;;;;;;4158538;28;20032;-82
2021/01/05 00:35:12;;;;;;;14.38;9.48;;;3.60;99.90;;;;;;4168071;28;20044;-82
2021/01/05 00:37:14;;;;;;;14.13;9.98;;;3.50;99.90;;;;;;4153148;28;20522;-82
2021/01/05 00:39:15;;;;;;;12.25;9.50;;;3.50;99.90;;;;;;4161777;28;20029;-82
2021/01/05 00:41:15;;;;;;;14.82;9.80;;;3.50;99.90;;;;;;4172009;28;20025;-82
2021/01/05 00:43:16;;;;;;;13.50;10.73;;;3.40;99.90;;;;;;4153908;28;20037;-82
2021/01/05 00:45:24;;;;;;;16.25;11.18;;;3.40;99.90;;;;;;4160879;28;20505;-82
2021/01/05 00:47:24;;;;;;;15.32;9.55;;;3.30;99.90;;;;;;4141518;28;20448;-82
2021/01/05 00:49:25;;;;;;;12.60;9.55;;;3.40;99.90;;;;;;4176728;28;20032;-82
2021/01/05 00:51:26;;;;;;;15.15;9.57;;;3.30;99.90;;;;;;4175679;28;20044;-82
2021/01/05 00:53:27;;;;;;;14.88;10.32;;;3.30;99.90;;;;;;4170313;28;20497;-82
2021/01/05 00:55:27;;;;;;;13.95;9.98;;;3.40;99.90;;;;;;4171024;28;20036;-82
2021/01/05 00:57:28;;;;;;;16.98;10.57;;;3.30;99.90;;;;;;4170672;28;20640;-82
2021/01/05 00:59:29;;;;;;;15.30;11.30;;;3.30;99.90;;;;;;4169259;28;20381;-82
2021/01/05 01:01:30;;;;;;;16.45;10.82;;;3.30;99.90;;;;;;4168137;28;20044;-82
2021/01/05 01:03:30;;;;;;;16.52;11.80;;;3.30;99.90;;;;;;4152049;28;20050;-81
2021/01/05 01:05:31;;;;;;;15.00;10.43;;;3.30;99.90;;;;;;4161292;28;20057;-81
2021/01/05 01:07:34;;;;;;;14.15;10.48;;;3.20;99.90;;;;;;4161007;28;20489;-81
2021/01/05 01:09:35;;;;;;;15.07;10.40;;;3.30;99.90;;;;;;4172596;28;20047;-81
2021/01/05 01:11:37;;;;;;;17.17;10.68;;;3.30;99.90;;;;;;4155848;28;20074;-81
2021/01/05 01:13:38;;;;;;;16.30;10.85;;;3.30;99.90;;;;;;4171459;28;20666;-81
2021/01/05 01:15:39;;;;;;;15.88;10.55;;;3.20;99.90;;;;;;4146257;28;20026;-81
2021/01/05 01:17:40;;;;;;;16.92;10.98;;;3.30;99.90;;;;;;4146272;28;20038;-82
2021/01/05 01:19:41;;;;;;;17.08;11.27;;;3.30;99.90;;;;;;4185335;28;20025;-82
2021/01/05 01:21:50;;;;;;;16.60;10.95;;;3.30;99.90;;;;;;4156498;28;20041;-82
2021/01/05 01:23:52;;;;;;;18.33;11.60;;;3.20;99.90;;;;;;4177539;28;20075;-82
2021/01/05 01:25:53;;;;;;;19.92;12.82;;;3.20;99.90;;;;;;4170433;28;20508;-82
2021/01/05 01:27:54;;;;;;;15.55;10.90;;;3.20;99.90;;;;;;4155538;28;20038;-82
2021/01/05 01:29:55;;;;;;;14.38;10.13;;;3.20;99.90;;;;;;4175877;28;20032;-82
2021/01/05 01:31:56;;;;;;;16.35;11.35;;;3.30;99.90;;;;;;4152352;28;20037;-82
2021/01/05 01:33:57;;;;;;;17.27;11.23;;;3.30;99.90;;;;;;4167225;28;20033;-81
2021/01/05 01:35:58;;;;;;;16.27;10.55;;;3.30;99.90;;;;;;4156124;28;20620;-81
2021/01/05 01:37:59;;;;;;;18.08;12.23;;;3.40;99.90;;;;;;4152462;28;20397;-81
2021/01/05 01:39:59;;;;;;;17.00;11.27;;;3.30;99.90;;;;;;4167979;28;20645;-81
2021/01/05 01:42:04;;;;;;;14.88;10.43;;;3.40;99.90;;;;;;4160203;28;20037;-81
2021/01/05 01:44:05;;;;;;;15.77;10.95;;;3.40;99.90;;;;;;4165719;28;20083;-81
2021/01/05 01:46:06;;;;;;;16.23;11.15;;;3.50;99.90;;;;;;4160688;28;20049;-81
2021/01/05 01:48:21;;;;;;;20.20;13.15;;;3.50;99.90;;;;;;4142885;28;20037;-81
2021/01/05 01:50:29;;;;;;;19.38;12.20;;;3.50;99.90;;;;;;4148833;28;20063;-81
2021/01/05 01:53:11;;;;;;;19.30;12.40;;;3.40;99.90;;;;;;4160437;28;20048;-81
2021/01/05 01:55:30;;;;;;;19.00;11.85;;;3.40;99.90;;;;;;4165070;28;20474;-81
2021/01/05 01:58:14;;;;;;;16.52;11.65;;;3.40;99.90;;;;;;4168308;28;20091;-81
2021/01/05 02:00:20;;;;;;;19.77;11.30;;;3.50;99.90;;;;;;4147308;28;20029;-81
2021/01/05 02:02:52;;;;;;;19.58;11.95;;;3.40;99.90;;;;;;4159913;28;20124;-81
2021/01/05 02:05:07;;;;;;;17.48;11.60;;;3.40;99.90;;;;;;4154642;28;20123;-81
2021/01/05 02:07:13;;;;;;;17.08;11.15;;;3.40;99.90;;;;;;4164473;28;20037;-81
2021/01/05 02:09:50;;;;;;;15.93;10.85;;;3.50;99.90;;;;;;4176605;28;20033;-82
2021/01/05 02:12:53;;;;;;;15.82;11.23;;;3.60;99.90;;;;;;4159853;28;20084;-81
2021/01/05 02:15:03;;;;;;;18.05;11.32;;;3.50;99.90;;;;;;4104876;28;20090;-81
2021/01/05 02:17:39;;;;;;;17.83;10.75;;;3.50;99.90;;;;;;4094711;29;20788;-81
2021/01/05 02:19:55;;;;;;;17.98;11.65;;;3.60;99.90;;;;;;4120728;28;20030;-81
2021/01/05 02:22:22;;;;;;;16.48;11.25;;;3.60;99.90;;;;;;4169499;28;20037;-81
2021/01/05 02:24:41;;;;;;;18.60;11.65;;;3.60;99.90;;;;;;4145799;28;20038;-82
2021/01/05 02:27:04;;;;;;;16.63;10.77;;;3.60;99.90;;;;;;4152856;28;20116;-82
2021/01/05 02:29:12;;;;;;;16.50;10.85;;;3.60;99.90;;;;;;4167225;28;20044;-82
2021/01/05 02:31:38;;;;;;;17.42;10.70;;;3.60;99.90;;;;;;4151880;28;20045;-81
2021/01/05 02:33:47;;;;;;;17.25;11.40;;;3.60;99.90;;;;;;4163682;28;20029;-81
2021/01/05 02:36:14;;;;;;;17.73;11.52;;;3.50;99.90;;;;;;4156838;28;20041;-81
2021/01/05 02:38:31;;;;;;;17.52;10.95;;;3.60;99.90;;;;;;4129932;28;20108;-81
2021/01/05 02:41:05;;;;;;;21.08;12.60;;;3.50;99.90;;;;;;4160182;28;20034;-81
2021/01/05 02:43:12;;;;;;;18.52;11.88;;;3.50;99.90;;;;;;4143478;28;20538;-81
2021/01/05 02:45:22;;;;;;;20.02;12.68;;;3.50;99.90;;;;;;4165015;28;20160;-81
2021/01/05 02:47:31;;;;;;;21.48;12.68;;;3.50;99.90;;;;;;4161293;28;20139;-81
2021/01/05 02:49:46;;;;;;;23.23;13.32;;;3.50;99.90;;;;;;4169047;28;20057;-81
2021/01/05 02:51:56;;;;;;;19.48;12.85;;;3.60;99.90;;;;;;4144073;28;20038;-81
2021/01/05 02:54:34;;;;;;;20.38;12.82;;;3.60;99.90;;;;;;4151189;28;20116;-81
2021/01/05 02:57:15;;;;;;;26.15;14.07;;;3.60;99.90;;;;;;4176489;28;20075;-81
2021/01/05 02:59:48;;;;;;;21.15;13.43;;;3.60;99.90;;;;;;4153715;28;20022;-82
2021/01/05 03:02:00;;;;;;;23.37;14.17;;;3.60;99.90;;;;;;4175669;28;20048;-82
2021/01/05 03:04:00;;;;;;;19.20;12.73;;;3.60;99.90;;;;;;4163898;28;20111;-82
2021/01/05 03:06:20;;;;;;;21.65;13.70;;;3.60;99.90;;;;;;4168174;28;20389;-82
2021/01/05 03:08:26;;;;;;;21.90;13.38;;;3.60;99.90;;;;;;4180672;28;20082;-82
2021/01/05 03:11:04;;;;;;;23.35;14.38;;;3.60;99.90;;;;;;4172122;28;20026;-82
2021/01/05 03:13:20;;;;;;;22.65;14.40;;;3.50;99.90;;;;;;4136213;28;20029;-82
2021/01/05 03:15:58;;;;;;;28.48;16.00;;;3.50;99.90;;;;;;4164788;28;20033;-82
2021/01/05 03:18:13;;;;;;;25.65;14.98;;;3.50;99.90;;;;;;4145998;28;20473;-82
2021/01/05 03:20:35;;;;;;;26.05;16.05;;;3.40;99.90;;;;;;4171952;28;20584;-82
2021/01/05 03:22:47;;;;;;;26.20;15.45;;;3.40;99.90;;;;;;4158790;28;20084;-82
2021/01/05 03:24:49;;;;;;;23.23;14.30;;;3.40;99.90;;;;;;4162421;28;20065;-81
2021/01/05 03:26:51;;;;;;;22.23;14.37;;;3.40;99.90;;;;;;4162091;28;20091;-81
2021/01/05 03:28:52;;;;;;;26.33;14.90;;;3.40;99.90;;;;;;4173496;28;20136;-81
2021/01/05 03:31:10;;;;;;;22.25;14.23;;;3.40;99.90;;;;;;4154570;28;20234;-81
2021/01/05 03:33:12;;;;;;;24.30;13.07;;;3.50;99.90;;;;;;4154896;28;20057;-81
2021/01/05 03:35:13;;;;;;;21.30;13.52;;;3.40;99.90;;;;;;4156407;28;20022;-81
2021/01/05 03:37:14;;;;;;;23.98;14.25;;;3.50;99.90;;;;;;4180424;28;20067;-81
2021/01/05 03:39:14;;;;;;;22.48;14.25;;;3.50;99.90;;;;;;4162652;28;20096;-81
2021/01/05 03:41:52;;;;;;;22.13;13.65;;;3.50;99.90;;;;;;4169288;28;20038;-81
2021/01/05 03:43:58;;;;;;;23.65;14.45;;;3.60;99.90;;;;;;4189170;28;20056;-81
2021/01/05 03:46:11;;;;;;;21.17;13.88;;;3.50;99.90;;;;;;4169581;28;20033;-81
2021/01/05 03:48:11;;;;;;;23.30;13.82;;;3.50;99.90;;;;;;4133271;28;20034;-81
2021/01/05 03:50:15;;;;;;;25.63;15.30;;;3.60;99.90;;;;;;4154614;28;20042;-81
2021/01/05 03:52:26;;;;;;;26.17;15.90;;;3.50;99.90;;;;;;4162765;28;20128;-81
2021/01/05 03:54:39;;;;;;;27.63;17.02;;;3.40;99.90;;;;;;4137650;28;20097;-81
2021/01/05 03:57:03;;;;;;;;;;;3.30;99.90;;;;;;4157560;28;20041;-81
2021/01/05 03:59:04;;;;;;;;;;;3.30;99.90;;;;;;4179063;28;19912;-81
2021/01/05 04:01:05;;;;;;;26.60;15.40;;;3.30;99.90;;;;;;4169707;28;19942;-81
2021/01/05 04:03:31;;;;;;;24.13;13.90;;;3.30;99.90;;;;;;4170522;28;20048;-81
2021/01/05 04:05:39;;;;;;;23.65;14.00;;;3.30;99.90;;;;;;4161042;28;20030;-81
2021/01/05 04:07:40;;;;;;;21.67;13.45;;;3.40;99.90;;;;;;4151260;28;20091;-81
2021/01/05 04:09:40;;;;;;;24.45;14.70;;;3.40;99.90;;;;;;4154328;28;20049;-81
2021/01/05 04:11:41;;;;;;;20.92;13.30;;;3.40;99.90;;;;;;4178183;28;20033;-81
2021/01/05 04:13:41;;;;;;;24.05;13.85;;;3.40;99.90;;;;;;4172346;28;20033;-81
2021/01/05 04:15:42;;;;;;;20.35;13.27;;;3.50;99.90;;;;;;4164533;28;20033;-81
2021/01/05 04:17:43;;;;;;;20.65;13.10;;;3.50;99.90;;;;;;4160287;28;20113;-81
2021/01/05 04:19:43;;;;;;;26.27;14.13;;;3.60;99.90;;;;;;4170701;28;20039;-81
2021/01/05 04:21:48;;;;;;;27.00;15.90;;;3.50;99.90;;;;;;4163572;28;20536;-81
2021/01/05 04:23:49;;;;;;;27.00;16.67;;;3.40;99.90;;;;;;4168950;28;20060;-82
2021/01/05 04:25:51;;;;;;;25.25;14.40;;;3.40;99.90;;;;;;4170050;28;20465;-82
2021/01/05 04:27:52;;;;;;;24.30;15.27;;;3.40;99.90;;;;;;4169963;28;20047;-82
2021/01/05 04:29:53;;;;;;;21.63;13.93;;;3.40;99.90;;;;;;4168762;28;20033;-81
2021/01/05 04:31:54;;;;;;;25.05;14.75;;;3.50;99.90;;;;;;4153338;28;20105;-81
2021/01/05 04:34:15;;;;;;;28.63;16.77;;;3.50;99.90;;;;;;4161705;28;20050;-81
2021/01/05 04:36:16;;;;;;;28.58;16.27;;;3.50;99.90;;;;;;4147626;28;20037;-81
2021/01/05 04:38:18;;;;;;;24.95;15.32;;;3.50;99.90;;;;;;4147453;28;20030;-81
2021/01/05 04:40:33;;;;;;;26.48;16.23;;;3.50;99.90;;;;;;4160717;28;20072;-81
2021/01/05 04:42:41;;;;;;;25.52;15.65;;;3.50;99.90;;;;;;4161747;28;20037;-81
2021/01/05 04:45:20;;;;;;;24.73;14.52;;;3.40;99.90;;;;;;4161366;28;20501;-81
2021/01/05 04:47:43;;;;;;;26.60;15.27;;;3.40;99.90;;;;;;4073690;29;20035;-81
2021/01/05 04:49:43;;;;;;;26.80;16.65;;;3.40;99.90;;;;;;4064331;29;20084;-81
2021/01/05 04:51:51;;;;;;;23.80;14.35;;;3.40;99.90;;;;;;4146868;28;20034;-81
2021/01/05 04:54:03;;;;;;;26.45;16.10;;;3.40;99.90;;;;;;4161704;28;20030;-81
2021/01/05 04:56:12;;;;;;;26.63;15.45;;;3.40;99.90;;;;;;4150946;28;20030;-81
2021/01/05 04:58:24;;;;;;;27.88;15.55;;;3.50;99.90;;;;;;4163884;28;20034;-81
2021/01/05 05:00:27;;;;;;;29.10;15.63;;;3.50;99.90;;;;;;4144263;28;20489;-81
2021/01/05 05:02:28;;;;;;;26.30;15.45;;;3.40;99.90;;;;;;4154873;28;20037;-81
2021/01/05 05:04:55;;;;;;;29.02;16.92;;;3.50;99.90;;;;;;4161994;28;20044;-81
2021/01/05 05:07:16;;;;;;;29.90;16.65;;;3.40;99.90;;;;;;4164868;28;20375;-81
2021/01/05 05:09:52;;;;;;;30.58;16.92;;;3.30;99.90;;;;;;4163747;28;20056;-81
2021/01/05 05:12:18;;;;;;;28.15;15.85;;;3.20;99.90;;;;;;4147420;28;20040;-81
2021/01/05 05:14:35;;;;;;;28.27;14.35;;;3.20;99.90;;;;;;4183780;28;20127;-82
2021/01/05 05:16:55;;;;;;;27.35;15.52;;;3.20;99.90;;;;;;4153054;28;20374;-81
2021/01/05 05:19:08;;;;;;;29.13;16.30;;;3.20;99.90;;;;;;4171652;28;20053;-81
2021/01/05 05:21:17;;;;;;;27.63;15.10;;;3.20;99.90;;;;;;4160764;28;20029;-82
2021/01/05 05:23:33;;;;;;;24.02;14.48;;;3.10;99.90;;;;;;4165507;28;20037;-82
2021/01/05 05:25:42;;;;;;;26.02;14.43;;;3.20;99.90;;;;;;4170571;28;20052;-82
2021/01/05 05:28:09;;;;;;;27.73;15.13;;;3.20;99.90;;;;;;4175164;28;20044;-82
2021/01/05 05:30:14;;;;;;;27.65;14.93;;;3.20;99.90;;;;;;4163769;28;20035;-82
2021/01/05 05:32:23;;;;;;;24.70;13.40;;;3.30;99.90;;;;;;4146142;28;20034;-82
2021/01/05 05:34:37;;;;;;;29.50;15.10;;;3.30;99.90;;;;;;4160644;28;20426;-82
2021/01/05 05:36:51;;;;;;;28.63;15.70;;;3.30;99.90;;;;;;4162242;28;20115;-82
2021/01/05 05:39:28;;;;;;;26.45;14.93;;;3.30;99.90;;;;;;4161189;28;20052;-82
2021/01/05 05:41:43;;;;;;;24.48;14.48;;;3.30;99.90;;;;;;4167900;28;20055;-82
2021/01/05 05:44:11;;;;;;;26.50;14.55;;;3.40;99.90;;;;;;4174558;28;20116;-82
2021/01/05 05:47:07;;;;;;;27.92;14.23;;;3.30;99.90;;;;;;4169963;28;20457;-82
2021/01/05 05:49:39;;;;;;;26.60;15.23;;;3.40;99.90;;;;;;4105495;28;20038;-82
2021/01/05 05:51:49;;;;;;;30.20;15.20;;;3.30;99.90;;;;;;4154175;28;20155;-82
2021/01/05 05:53:59;;;;;;;25.45;15.13;;;3.30;99.90;;;;;;4165279;28;20033;-81
2021/01/05 05:56:04;;;;;;;26.63;14.57;;;3.30;99.90;;;;;;4165069;28;20055;-81
2021/01/05 05:58:06;;;;;;;24.63;14.80;;;3.20;99.90;;;;;;4166003;28;20034;-81
2021/01/05 06:00:18;;;;;;;27.25;15.82;;;3.30;99.90;;;;;;4157034;28;20099;-81
2021/01/05 06:02:21;;;;;;;;;;;3.20;99.90;;;;;;4167645;28;20048;-81
2021/01/05 06:04:22;;;;;;;28.45;14.75;;;3.30;99.90;;;;;;4175624;28;19912;-81
2021/01/05 06:06:23;;;;;;;28.15;15.25;;;3.30;99.90;;;;;;4157035;28;20026;-81
2021/01/05 06:08:24;;;;;;;27.63;16.55;;;3.30;99.90;;;;;;4162437;28;20061;-81
2021/01/05 06:10:25;;;;;;;23.92;14.05;;;3.30;99.90;;;;;;4167110;28;20037;-81
2021/01/05 06:12:30;;;;;;;26.85;15.05;;;3.30;99.90;;;;;;4168622;28;20051;-81
2021/01/05 06:14:30;;;;;;;29.02;15.55;;;3.30;99.90;;;;;;4168083;28;20025;-81
2021/01/05 06:16:34;;;;;;;25.70;15.45;;;3.30;99.90;;;;;;4151922;28;20063;-82
2021/01/05 06:18:36;;;;;;;28.02;15.65;;;3.40;99.90;;;;;;4174832;28;20044;-82
2021/01/05 06:20:39;;;;;;;;;;;3.40;99.90;;;;;;4172649;28;20567;-81
2021/01/05 06:22:40;;;;;;;27.98;14.85;;;3.40;99.90;;;;;;4145644;28;19943;-81
2021/01/05 06:24:42;;;;;;;27.75;15.23;;;3.40;99.90;;;;;;4175958;28;20029;-81
2021/01/05 06:26:43;;;;;;;;;;;3.40;99.90;;;;;;4146984;28;20030;-81
2021/01/05 06:28:44;;;;;;;25.13;14.00;;;3.40;99.90;;;;;;4155952;28;20556;-81
2021/01/05 06:30:44;;;;;;;25.88;14.98;;;3.50;99.90;;;;;;4169010;28;20044;-81
2021/01/05 06:32:47;;;;;;;26.67;15.48;;;3.50;99.90;;;;;;4162652;28;20029;-84
2021/01/05 06:34:48;;;;;;;27.45;14.77;;;3.50;99.90;;;;;;4166714;28;20042;-83
2021/01/05 06:36:48;;;;;;;28.40;16.08;;;3.60;99.90;;;;;;4162670;28;20120;-82
2021/01/05 06:38:49;;;;;;;30.02;16.38;;;3.60;99.90;;;;;;4152302;28;20038;-82
2021/01/05 06:41:00;;;;;;;27.02;16.05;;;3.60;99.90;;;;;;4106763;28;20034;-82
2021/01/05 06:43:02;;;;;;;30.80;16.65;;;3.60;99.90;;;;;;4167556;28;20116;-82
2021/01/05 06:45:07;;;;;;;26.63;15.98;;;3.70;99.90;;;;;;4156207;28;20026;-82
2021/01/05 06:47:09;;;;;;;29.55;16.33;;;3.60;99.90;;;;;;4170511;28;20032;-82
2021/01/05 06:49:12;;;;;;;29.48;16.50;;;3.60;99.90;;;;;;4156291;28;20033;-82
2021/01/05 06:51:14;;;;;;;25.15;14.88;;;3.50;99.90;;;;;;4172854;28;20112;-82
2021/01/05 06:53:14;;;;;;;24.98;14.40;;;3.50;99.90;;;;;;4150274;28;20087;-82
2021/01/05 06:55:15;;;;;;;27.33;16.27;;;3.60;99.90;;;;;;4153959;28;20045;-83
2021/01/05 06:57:16;;;;;;;27.60;15.65;;;3.60;99.90;;;;;;4160205;28;20030;-83
2021/01/05 06:59:17;;;;;;;28.23;15.73;;;3.60;99.90;;;;;;4162748;28;20029;-82
2021/01/05 07:01:24;;;;;;;29.50;16.33;;;3.60;99.90;;;;;;4148623;28;20053;-82
2021/01/05 07:03:25;;;;;;;25.77;15.00;;;3.60;99.90;;;;;;4184823;28;20051;-82
2021/01/05 07:05:26;;;;;;;28.40;15.90;;;3.60;99.90;;;;;;4167635;28;20112;-82
2021/01/05 07:07:47;;;;;;;29.52;15.82;;;3.60;99.90;;;;;;4149223;28;20049;-82
2021/01/05 07:09:51;;;;;;;26.55;15.68;;;3.60;99.90;;;;;;4146959;28;20075;-82
2021/01/05 07:11:56;;;;;;;22.65;13.73;;;3.60;99.90;;;;;;4167342;28;20046;-82
2021/01/05 07:13:56;;;;;;;26.80;14.48;;;3.70;99.90;;;;;;4166484;28;20025;-82
2021/01/05 07:16:22;;;;;;;26.38;14.75;;;3.70;99.90;;;;;;4162725;28;20032;-82
2021/01/05 07:18:23;;;;;;;24.55;14.60;;;3.70;99.90;;;;;;4170776;28;20116;-82
2021/01/05 07:20:29;;;;;;;25.88;15.15;;;3.80;99.90;;;;;;4155027;28;20457;-82
2021/01/05 07:22:30;;;;;;;25.23;14.80;;;3.80;99.90;;;;;;4166204;28;20046;-82
2021/01/05 07:24:30;;;;;;;25.52;15.13;;;3.80;99.90;;;;;;4178593;28;20104;-82
2021/01/05 07:26:36;;;;;;;31.60;18.20;;;3.80;99.90;;;;;;4177794;28;20060;-82
2021/01/05 07:28:57;;;;;;;33.00;16.23;;;3.60;99.90;;;;;;4151436;28;20116;-83
2021/01/05 07:30:57;;;;;;;30.05;16.75;;;3.70;99.90;;;;;;4170321;28;20018;-83
2021/01/05 07:32:58;;;;;;;29.95;15.50;;;3.70;99.90;;;;;;4171926;28;20103;-84
2021/01/05 07:34:58;;;;;;;31.33;15.40;;;3.70;99.90;;;;;;4154890;28;20065;-82
2021/01/05 07:37:05;;;;;;;28.73;15.18;;;3.70;99.90;;;;;;4174687;28;20030;-83
2021/01/05 07:39:19;;;;;;;28.35;16.20;;;3.70;99.90;;;;;;4160542;28;20085;-83
2021/01/05 07:41:20;;;;;;;27.98;16.02;;;3.70;99.90;;;;;;4157249;28;20037;-82
2021/01/05 07:43:29;;;;;;;33.95;18.08;;;3.70;99.90;;;;;;4172373;28;20108;-81
2021/01/05 07:45:30;;;;;;;29.73;16.52;;;3.70;99.90;;;;;;4173203;28;20516;-83
2021/01/05 07:47:38;;;;;;;31.00;17.00;;;3.70;99.90;;;;;;4163351;28;20030;-82
2021/01/05 07:49:39;;;;;;;30.73;17.27;;;3.60;99.90;;;;;;4158790;28;20481;-82
2021/01/05 07:51:59;;;;;;;32.50;17.88;;;3.70;99.90;;;;;;4171501;28;20068;-82
2021/01/05 07:54:00;;;;;;;33.22;18.50;;;3.60;99.90;;;;;;4177149;28;20048;-82
2021/01/05 07:56:06;;;;;;;32.38;17.10;;;3.70;99.90;;;;;;4161594;28;20025;-82
2021/01/05 07:58:07;;;;;;;33.08;17.02;;;3.70;99.90;;;;;;4163871;28;20037;-82
2021/01/05 08:00:11;;;;;;;33.60;18.35;;;3.70;99.90;;;;;;4156091;28;20100;-82
2021/01/05 08:02:18;;;;;;;29.30;16.45;;;3.60;99.90;;;;;;4170469;28;20045;-81
2021/01/05 08:04:18;;;;;;;29.42;15.80;;;3.60;99.90;;;;;;4170086;28;20040;-81
2021/01/05 08:06:19;;;;;;;32.97;17.20;;;3.60;99.90;;;;;;4170580;28;20037;-81
2021/01/05 08:08:19;;;;;;;30.05;16.38;;;3.70;99.90;;;;;;4171369;28;20087;-81
2021/01/05 08:10:26;;;;;;;28.58;15.85;;;3.70;99.90;;;;;;4166217;28;20021;-81
2021/01/05 08:12:26;;;;;;;27.23;14.88;;;3.70;99.90;;;;;;4171314;28;20114;-81
2021/01/05 08:14:27;;;;;;;30.67;16.40;;;3.80;99.90;;;;;;4148963;28;20029;-81
2021/01/05 08:16:32;;;;;;;29.40;16.48;;;3.80;99.90;;;;;;4172327;28;20089;-81
2021/01/05 08:18:33;;;;;;;28.85;16.30;;;3.80;99.90;;;;;;4153374;28;20057;-82
2021/01/05 08:20:34;;;;;;;30.50;16.73;;;3.70;99.90;;;;;;4153453;28;20038;-82
2021/01/05 08:22:58;;;;;;;31.40;16.20;;;3.80;99.90;;;;;;4178655;28;20420;-81
2021/01/05 08:24:58;;;;;;;29.10;14.80;;;3.70;99.90;;;;;;4155167;28;20647;-81
2021/01/05 08:27:00;;;;;;;26.30;14.65;;;3.80;99.90;;;;;;4161571;28;20030;-81
2021/01/05 08:29:00;;;;;;;29.90;15.02;;;3.80;99.90;;;;;;4154079;28;20064;-81
2021/01/05 08:31:01;;;;;;;29.38;15.48;;;3.80;99.90;;;;;;4173209;28;20052;-81
2021/01/05 08:33:05;;;;;;;25.27;14.02;;;3.80;99.90;;;;;;4159837;28;20069;-81
2021/01/05 08:35:08;;;;;;;26.70;14.02;;;3.90;99.90;;;;;;4169762;28;21405;-81
2021/01/05 08:37:09;;;;;;;30.00;15.23;;;3.90;99.90;;;;;;4171842;28;20036;-81
2021/01/05 08:39:13;;;;;;;28.40;14.27;;;3.90;99.90;;;;;;4173500;28;20049;-81
2021/01/05 08:41:15;;;;;;;26.80;13.80;;;3.80;99.90;;;;;;4174743;28;20676;-81
2021/01/05 08:43:15;;;;;;;27.50;14.13;;;3.90;99.90;;;;;;4176184;28;20053;-81
2021/01/05 08:45:16;;;;;;;25.00;14.25;;;3.80;99.90;;;;;;4170344;28;20088;-81
2021/01/05 08:47:17;;;;;;;24.55;13.05;;;3.90;99.90;;;;;;4156772;28;20059;-81
2021/01/05 08:49:31;;;;;;;28.83;14.82;;;3.90;99.90;;;;;;4174511;28;20029;-81
2021/01/05 08:51:32;;;;;;;27.75;14.45;;;3.90;99.90;;;;;;4167657;28;20095;-81
2021/01/05 08:53:33;;;;;;;26.38;14.27;;;3.90;99.90;;;;;;4157238;28;20045;-81
2021/01/05 08:55:36;;;;;;;29.38;14.57;;;3.90;99.90;;;;;;4159769;28;20397;-81
2021/01/05 08:57:40;;;;;;;28.42;14.30;;;3.80;99.90;;;;;;4170847;28;20060;-81
2021/01/05 08:59:48;;;;;;;22.85;13.43;;;3.80;99.90;;;;;;4177147;28;20083;-81
2021/01/05 09:01:50;;;;;;;28.88;15.23;;;3.80;99.90;;;;;;4168147;28;20447;-80
2021/01/05 09:03:57;;;;;;;;;;;3.70;99.90;;;;;;4153125;28;20488;-80
2021/01/05 09:06:04;;;;;;;27.40;14.55;;;3.70;99.90;;;;;;4164407;28;19912;-80
2021/01/05 09:08:05;;;;;;;27.17;13.35;;;3.60;99.90;;;;;;4171634;28;20042;-81
2021/01/05 09:10:08;;;;;;;23.65;12.50;;;3.60;99.90;;;;;;4155500;28;20049;-81
2021/01/05 09:12:17;;;;;;;;;;;3.70;99.90;;;;;;4151809;28;20033;-81
2021/01/05 09:14:18;;;;;;;25.60;12.98;;;3.70;99.90;;;;;;4146954;28;20460;-80
2021/01/05 09:16:25;;;;;;;22.48;12.55;;;3.70;99.90;;;;;;4168017;28;20109;-80
2021/01/05 09:18:37;;;;;;;26.08;14.48;;;3.70;99.90;;;;;;4164392;28;20393;-81
2021/01/05 09:20:39;;;;;;;24.77;12.60;;;3.80;99.90;;;;;;4175700;28;20041;-81
2021/01/05 09:22:44;;;;;;;24.48;12.38;;;3.80;99.90;;;;;;4166539;28;20388;-80
2021/01/05 09:24:45;;;;;;;25.20;12.77;;;3.70;99.90;;;;;;4155185;28;20124;-80
2021/01/05 09:26:57;;;;;;;25.88;14.20;;;3.70;99.90;;;;;;4154439;28;20052;-80
2021/01/05 09:29:06;;;;;;;26.50;13.30;;;3.80;99.90;;;;;;4166251;28;20029;-81
2021/01/05 09:31:07;;;;;;;25.85;13.68;;;3.80;99.90;;;;;;4147009;28;20045;-80
2021/01/05 09:33:08;;;;;;;25.58;13.43;;;3.80;99.90;;;;;;4172969;28;20170;-80
2021/01/05 09:35:09;;;;;;;24.67;13.23;;;3.90;99.90;;;;;;4165710;28;20037;-80
2021/01/05 09:37:11;;;;;;;28.67;14.50;;;3.90;99.90;;;;;;4151657;28;20037;-80
2021/01/05 09:39:15;;;;;;;28.23;14.18;;;3.80;99.90;;;;;;4171189;28;20030;-81
2021/01/05 09:41:20;;;;;;;27.77;14.30;;;3.80;99.90;;;;;;4138784;28;20045;-81
2021/01/05 09:43:20;;;;;;;27.23;13.77;;;3.80;99.90;;;;;;4175186;28;20025;-81
2021/01/05 09:45:21;;;;;;;27.45;13.10;;;3.80;99.90;;;;;;4161616;28;20374;-81
2021/01/05 09:47:23;;;;;;;26.73;13.25;;;3.70;99.90;;;;;;4176706;28;20627;-81
2021/01/05 09:49:24;;;;;;;28.58;13.30;;;3.70;99.90;;;;;;4150494;28;21298;-81
2021/01/05 09:51:27;;;;;;;26.02;12.73;;;3.80;99.90;;;;;;4171791;28;20091;-84
2021/01/05 09:53:38;;;;;;;23.63;12.65;;;3.90;99.90;;;;;;4168439;28;20039;-81
2021/01/05 09:55:39;;;;;;;21.63;12.07;;;3.90;99.90;;;;;;4161332;28;20029;-80
2021/01/05 09:57:56;;;;;;;28.13;12.60;;;3.90;99.90;;;;;;4171488;28;20029;-81
2021/01/05 09:59:57;;;;;;;26.20;13.50;;;4.00;99.90;;;;;;4169355;28;20048;-81
2021/01/05 10:02:03;;;;;;;29.10;14.02;;;3.90;99.90;;;;;;4170685;28;20040;-80
2021/01/05 10:04:05;;;;;;;23.83;13.27;;;3.90;99.90;;;;;;4174256;28;20597;-80
2021/01/05 10:06:10;;;;;;;29.63;14.27;;;3.90;99.90;;;;;;4146080;28;20645;-82
2021/01/05 10:08:10;;;;;;;28.02;14.38;;;4.00;99.90;;;;;;4133144;28;20541;-81
2021/01/05 10:10:25;;;;;;;33.83;16.05;;;3.90;99.90;;;;;;4164627;28;20033;-81
2021/01/05 10:12:31;;;;;;;29.20;14.70;;;3.90;99.90;;;;;;4164296;28;20029;-81
2021/01/05 10:14:32;;;;;;;27.38;14.18;;;3.90;99.90;;;;;;4171137;28;20029;-81
2021/01/05 10:16:38;;;;;;;24.88;13.95;;;4.00;99.90;;;;;;4165533;28;20029;-81
2021/01/05 10:18:48;;;;;;;28.08;14.50;;;4.00;99.90;;;;;;4155230;28;20050;-82
2021/01/05 10:20:49;;;;;;;28.17;14.20;;;4.00;99.90;;;;;;4175209;28;20045;-86
2021/01/05 10:22:52;;;;;;;28.40;13.52;;;4.00;99.90;;;;;;4151250;28;20076;-82
2021/01/05 10:24:59;;;;;;;28.83;14.48;;;4.00;99.90;;;;;;4181853;28;20055;-82
2021/01/05 10:27:00;;;;;;;26.92;14.55;;;4.00;99.90;;;;;;4161821;28;20188;-82
2021/01/05 10:29:02;;;;;;;26.63;14.45;;;4.00;99.90;;;;;;4149731;28;20026;-81
2021/01/05 10:31:03;;;;;;;27.30;13.55;;;4.00;99.90;;;;;;4175072;28;20525;-81
2021/01/05 10:33:04;;;;;;;25.58;14.38;;;4.10;99.90;;;;;;4162622;28;20037;-81
2021/01/05 10:35:05;;;;;;;25.98;14.57;;;4.00;99.90;;;;;;4144561;28;20413;-81
2021/01/05 10:37:07;;;;;;;24.90;12.93;;;4.00;99.90;;;;;;4174710;28;20038;-81
2021/01/05 10:39:12;;;;;;;29.58;15.13;;;4.10;99.90;;;;;;4160583;28;20073;-81
2021/01/05 10:41:13;;;;;;;29.08;14.13;;;4.00;99.90;;;;;;4167986;28;20033;-81
2021/01/05 10:43:13;;;;;;;30.80;14.80;;;3.90;99.90;;;;;;4150925;28;20569;-81
2021/01/05 10:45:25;;;;;;;25.95;14.07;;;3.90;99.90;;;;;;4192459;28;20033;-81
2021/01/05 10:47:27;;;;;;;24.10;13.65;;;3.90;99.90;;;;;;4169178;28;20033;-82
2021/01/05 10:49:49;;;;;;;31.08;15.10;;;3.90;99.90;;;;;;4176880;28;20079;-82
2021/01/05 10:52:05;;;;;;;29.23;15.00;;;3.90;99.90;;;;;;4165453;28;20467;-82
2021/01/05 10:54:05;;;;;;;27.77;14.73;;;3.90;99.90;;;;;;4180527;28;20037;-83
2021/01/05 10:56:11;;;;;;;27.88;14.13;;;3.90;99.90;;;;;;4164972;28;20446;-83
2021/01/05 10:58:13;;;;;;;27.67;14.02;;;3.90;99.90;;;;;;4154370;28;20038;-83
2021/01/05 11:00:16;;;;;;;28.40;14.55;;;4.00;99.90;;;;;;4179183;28;20198;-83